CheckWX is a tool to help pilots better visualize weather data.  It is not intended as a substitute for an official pre-flight weather briefing.

08:32:25 UTC

KMWT METAR
Mount Ida Airport
Mount Ida, Arkansas, USA
Current

30 mins ago

KMWT 220802Z AUTO 13008KT 10SM -RA SCT011 BKN100 OVC120 06/05 A2999 RMK AO2 P0000 T00610050
Observed
Feb-22 @ 08:02 UTC
Wind
  • 130° at 8 KTS
Visibility
10 SM
Flight Rules
VFR
Conditions
Light Rain
Cloud Levels
  • Scattered at 1,100' AGL
  • Broken at 10,000' AGL
  • Overcast at 12,000' AGL
Temperature
C / 43°F
Dewpoint
C / 41°F
Humidity
93%
Altimeter
29.99" Hg
Pressure
1015.62 hPa
Current Rain
0.01"
Previous

39 mins ago

KMWT 220753Z AUTO 12006KT 10SM -RA BKN010 BKN085 OVC100 06/05 A3001 RMK AO2 PRESFR SLP167 P0004 T00610050
Observed
Feb-22 @ 07:53 UTC
Wind
  • 120° at 6 KTS
Visibility
10 SM
Flight Rules
MVFR
Conditions
Light Rain
Cloud Levels
  • Broken at 1,000' AGL
  • Broken at 8,500' AGL
  • Overcast at 10,000' AGL
Temperature
C / 43°F
Dewpoint
C / 41°F
Humidity
93%
Altimeter
30.01" Hg
Pressure
1016.7 hPa
Current Rain
0.04"
Previous

56 mins ago

KMWT 220736Z AUTO 12005KT 8SM -RA BKN010 OVC095 06/04 A3004 RMK AO2 P0003 T00610044
Observed
Feb-22 @ 07:36 UTC
Wind
  • 120° at 5 KTS
Visibility
8 SM
Flight Rules
MVFR
Conditions
Light Rain
Cloud Levels
  • Broken at 1,000' AGL
  • Overcast at 9,500' AGL
Temperature
C / 43°F
Dewpoint
C / 39°F
Humidity
87%
Altimeter
30.04" Hg
Pressure
1017.32 hPa
Current Rain
0.03"